createdAt,value
2023-05-25T00:01:34.414Z,7.14
2023-05-25T00:03:36.118Z,7.09
2023-05-25T00:05:38.402Z,7.03
2023-05-25T00:07:40.459Z,6.97
2023-05-25T00:09:44.287Z,6.84
2023-05-25T00:11:46.118Z,6.75
2023-05-25T00:13:47.654Z,6.72
2023-05-25T00:15:49.378Z,6.71
2023-05-25T00:17:51.139Z,6.71
2023-05-25T00:19:52.900Z,6.66
2023-05-25T00:21:54.597Z,6.54
2023-05-25T00:23:56.121Z,6.52
2023-05-25T00:25:57.896Z,6.49
2023-05-25T00:27:59.541Z,6.47
2023-05-25T00:30:01.828Z,6.50
2023-05-25T00:32:04.478Z,6.41
2023-05-25T00:34:06.285Z,6.36
2023-05-25T00:36:09.253Z,6.37
2023-05-25T00:38:18.172Z,6.26
2023-05-25T00:40:20.287Z,6.17
2023-05-25T00:42:23.130Z,6.20
2023-05-25T00:44:24.793Z,6.21
2023-05-25T00:46:27.164Z,6.26
2023-05-25T00:48:29.103Z,6.28
2023-05-25T00:50:42.243Z,6.23
2023-05-25T00:52:44.010Z,6.20
2023-05-25T00:54:51.550Z,6.14
2023-05-25T00:56:57.293Z,6.10
2023-05-25T00:59:06.271Z,5.90
2023-05-25T01:01:12.051Z,5.83
2023-05-25T01:03:17.824Z,5.74
2023-05-25T01:05:21.149Z,5.74
2023-05-25T01:07:27.656Z,5.76
2023-05-25T01:09:34.468Z,5.79
2023-05-25T01:11:37.082Z,5.82
2023-05-25T01:13:39.748Z,5.75
2023-05-25T01:15:41.835Z,5.79
2023-05-25T01:17:44.305Z,5.76
2023-05-25T01:19:47.684Z,5.77
2023-05-25T01:22:08.005Z,5.74
2023-05-25T01:24:17.495Z,5.71
2023-05-25T01:26:23.826Z,5.67
2023-05-25T01:28:29.916Z,5.71
2023-05-25T01:30:32.860Z,5.76
2023-05-25T01:32:35.246Z,5.71
2023-05-25T01:34:38.035Z,5.71
2023-05-25T01:36:40.450Z,5.69
2023-05-25T01:38:42.080Z,5.68
2023-05-25T01:40:45.157Z,5.59
2023-05-25T01:42:46.784Z,5.64
2023-05-25T01:44:48.894Z,5.51
2023-05-25T01:46:58.073Z,5.53
2023-05-25T01:49:14.274Z,5.50
2023-05-25T01:51:38.533Z,5.51
2023-05-25T01:53:54.116Z,5.47
2023-05-25T01:56:02.730Z,5.41
2023-05-25T01:58:06.678Z,5.38
2023-05-25T02:00:11.548Z,5.38
2023-05-25T02:02:18.737Z,5.43
2023-05-25T02:04:22.044Z,5.42
2023-05-25T02:06:23.653Z,5.47
2023-05-25T02:08:25.501Z,5.55
2023-05-25T02:10:27.095Z,5.46
2023-05-25T02:12:28.704Z,5.45
2023-05-25T02:14:30.364Z,5.43
2023-05-25T02:16:32.622Z,5.51
2023-05-25T02:18:34.824Z,5.45
2023-05-25T02:20:37.398Z,5.49
2023-05-25T02:22:38.992Z,5.53
2023-05-25T02:24:42.213Z,5.51
2023-05-25T02:26:43.831Z,5.55
2023-05-25T02:28:45.839Z,5.51
2023-05-25T02:30:47.390Z,5.49
2023-05-25T02:32:50.268Z,5.44
2023-05-25T02:34:52.588Z,5.43
2023-05-25T02:36:54.195Z,5.43
2023-05-25T02:38:55.776Z,5.35
2023-05-25T02:40:57.916Z,5.34
2023-05-25T02:43:00.006Z,5.29
2023-05-25T02:45:01.600Z,5.20
2023-05-25T02:47:04.397Z,5.21
2023-05-25T02:49:06.466Z,5.15
2023-05-25T02:51:09.763Z,5.17
2023-05-25T02:53:11.927Z,5.12
2023-05-25T02:55:14.522Z,5.14
2023-05-25T02:57:16.821Z,5.17
2023-05-25T02:59:18.372Z,5.16
2023-05-25T03:01:21.090Z,5.15
2023-05-25T03:03:27.755Z,5.15
2023-05-25T03:05:29.645Z,5.09
2023-05-25T03:07:32.058Z,5.13
2023-05-25T03:09:34.068Z,5.09
2023-05-25T03:11:38.121Z,5.08
2023-05-25T03:13:39.798Z,5.13
2023-05-25T03:15:41.640Z,5.08
2023-05-25T03:17:43.434Z,5.14
2023-05-25T03:19:45.537Z,5.12
2023-05-25T03:21:47.667Z,5.09
2023-05-25T03:23:49.669Z,5.09
2023-05-25T03:25:51.949Z,5.15
2023-05-25T03:27:54.826Z,5.12
2023-05-25T03:29:56.362Z,5.09
2023-05-25T03:31:58.456Z,5.05
2023-05-25T03:34:04.566Z,5.10
2023-05-25T03:36:09.262Z,5.14
2023-05-25T03:38:10.830Z,5.14
2023-05-25T03:40:12.640Z,5.20
2023-05-25T03:42:14.340Z,5.18
2023-05-25T03:44:16.064Z,5.14
2023-05-25T03:46:18.999Z,5.18
2023-05-25T03:48:20.732Z,5.13
2023-05-25T03:50:22.434Z,5.17
2023-05-25T03:52:24.029Z,5.31
2023-05-25T03:54:25.972Z,5.39
2023-05-25T03:56:27.962Z,5.44
2023-05-25T03:58:29.474Z,5.53
2023-05-25T04:00:31.208Z,5.66
2023-05-25T04:02:34.611Z,5.83
2023-05-25T04:04:38.151Z,5.91
2023-05-25T04:06:40.092Z,6.01
2023-05-25T04:08:42.308Z,6.08
2023-05-25T04:10:47.064Z,6.24
2023-05-25T04:12:48.922Z,6.34
2023-05-25T04:14:51.041Z,6.41
2023-05-25T04:16:53.548Z,6.48
2023-05-25T04:18:55.912Z,6.51
2023-05-25T04:20:58.011Z,6.64
2023-05-25T04:22:59.674Z,6.69
2023-05-25T04:25:01.420Z,6.70
2023-05-25T04:27:03.162Z,6.72
2023-05-25T04:29:04.924Z,6.74
2023-05-25T04:31:27.121Z,6.85
2023-05-25T04:33:56.315Z,6.97
2023-05-25T04:36:06.881Z,7.19
2023-05-25T04:38:08.675Z,9.24
2023-05-25T04:40:12.074Z,11.02
2023-05-25T04:42:13.904Z,11.00
2023-05-25T04:44:15.854Z,10.71
2023-05-25T04:46:21.008Z,10.29
2023-05-25T04:48:24.611Z,9.71
2023-05-25T04:50:26.316Z,9.45
2023-05-25T04:52:27.903Z,9.18
2023-05-25T04:54:29.625Z,9.05
2023-05-25T04:56:33.730Z,9.01
2023-05-25T04:58:35.452Z,9.11
2023-05-25T05:00:40.078Z,9.19
2023-05-25T05:02:42.489Z,9.25
2023-05-25T05:04:44.117Z,9.36
2023-05-25T05:06:47.488Z,9.47
2023-05-25T05:08:53.680Z,9.62
2023-05-25T05:10:55.728Z,9.76
2023-05-25T05:12:59.420Z,9.86
2023-05-25T05:15:01.344Z,9.97
2023-05-25T05:17:03.408Z,10.09
2023-05-25T05:19:05.146Z,10.21
2023-05-25T05:21:06.722Z,10.30
2023-05-25T05:23:09.841Z,10.37
2023-05-25T05:25:11.556Z,10.50
2023-05-25T05:27:15.075Z,10.65
2023-05-25T05:29:20.243Z,10.79
2023-05-25T05:31:24.087Z,10.92
2023-05-25T05:33:26.201Z,11.00
2023-05-25T05:35:28.502Z,11.10
2023-05-25T05:37:40.329Z,11.18
2023-05-25T05:39:41.914Z,11.28
2023-05-25T05:41:45.542Z,11.38
2023-05-25T05:43:48.307Z,11.46
2023-05-25T05:45:50.001Z,11.53
2023-05-25T05:47:51.617Z,11.65
2023-05-25T05:49:53.771Z,11.73
2023-05-25T05:51:55.710Z,11.81
2023-05-25T05:53:57.833Z,11.89
2023-05-25T05:55:59.797Z,11.94
2023-05-25T05:58:01.419Z,12.12
2023-05-25T06:00:06.744Z,12.14
2023-05-25T06:02:17.053Z,12.24
2023-05-25T06:04:19.205Z,12.30
2023-05-25T06:06:22.010Z,12.38
2023-05-25T06:08:23.666Z,12.36
2023-05-25T06:10:25.363Z,12.52
2023-05-25T06:12:27.039Z,12.60
2023-05-25T06:14:28.939Z,12.70
2023-05-25T06:16:33.271Z,12.81
2023-05-25T06:18:34.904Z,12.88
2023-05-25T06:20:37.107Z,12.93
2023-05-25T06:22:38.897Z,13.05
2023-05-25T06:24:40.488Z,13.13
2023-05-25T06:26:42.620Z,13.15
2023-05-25T06:28:44.260Z,13.17
2023-05-25T06:30:46.244Z,13.10
2023-05-25T06:32:48.032Z,13.27
2023-05-25T06:34:50.220Z,13.28
2023-05-25T06:36:53.070Z,13.21
2023-05-25T06:38:55.011Z,13.28
2023-05-25T06:40:56.882Z,13.38
2023-05-25T06:42:58.453Z,13.51
2023-05-25T06:45:27.926Z,13.77
2023-05-25T06:47:31.228Z,13.91
2023-05-25T06:49:33.169Z,13.95
2023-05-25T06:51:34.750Z,13.80
2023-05-25T06:53:37.430Z,13.98
2023-05-25T06:55:39.022Z,14.25
2023-05-25T06:57:40.941Z,14.36
2023-05-25T06:59:42.465Z,14.55
2023-05-25T07:01:46.456Z,14.78
2023-05-25T07:03:47.971Z,14.97
2023-05-25T07:05:49.741Z,15.19
2023-05-25T07:07:51.298Z,15.32
2023-05-25T07:09:52.836Z,15.47
2023-05-25T07:11:55.180Z,15.48
2023-05-25T07:13:56.756Z,15.64
2023-05-25T07:15:58.332Z,15.63
2023-05-25T07:18:00.022Z,15.85
2023-05-25T07:20:01.879Z,16.02
2023-05-25T07:22:03.469Z,16.18
2023-05-25T07:24:05.429Z,16.23
2023-05-25T07:26:07.202Z,16.38
2023-05-25T07:28:09.169Z,16.54
2023-05-25T07:30:11.090Z,16.71
2023-05-25T07:32:12.643Z,16.72
2023-05-25T07:34:14.494Z,16.66
2023-05-25T07:36:16.766Z,16.59
2023-05-25T07:38:18.365Z,16.78
2023-05-25T07:40:19.927Z,16.82
2023-05-25T07:42:21.955Z,17.08
2023-05-25T07:44:23.769Z,16.90
2023-05-25T07:46:25.847Z,17.16
2023-05-25T07:48:27.557Z,17.43
2023-05-25T07:50:31.705Z,17.76
2023-05-25T07:52:33.690Z,17.86
2023-05-25T07:54:40.376Z,18.11
2023-05-25T07:56:42.670Z,18.27
2023-05-25T07:58:44.260Z,18.24
2023-05-25T08:00:45.808Z,18.22
2023-05-25T08:02:47.468Z,18.15
2023-05-25T08:04:49.146Z,18.11
2023-05-25T08:06:50.718Z,18.12
2023-05-25T08:08:52.275Z,18.16
2023-05-25T08:10:53.833Z,18.23
2023-05-25T08:12:56.706Z,18.26
2023-05-25T08:14:59.921Z,18.42
2023-05-25T08:17:02.602Z,18.66
2023-05-25T08:19:04.270Z,18.52
2023-05-25T08:21:05.837Z,18.51
2023-05-25T08:23:08.266Z,18.62
2023-05-25T08:25:10.040Z,18.79
2023-05-25T08:27:11.642Z,18.95
2023-05-25T08:29:13.206Z,19.10
2023-05-25T08:31:14.744Z,19.15
2023-05-25T08:33:16.371Z,19.14
2023-05-25T08:35:17.998Z,19.10
2023-05-25T08:37:21.198Z,19.23
2023-05-25T08:39:22.932Z,19.44
2023-05-25T08:41:24.843Z,19.58
2023-05-25T08:43:26.786Z,19.64
2023-05-25T08:47:40.563Z,19.93
2023-05-25T08:49:44.979Z,20.20
2023-05-25T08:51:52.003Z,20.46
2023-05-25T08:53:55.050Z,20.92
2023-05-25T08:55:57.424Z,21.13
2023-05-25T08:58:19.304Z,21.35
2023-05-25T09:00:28.238Z,21.35
2023-05-25T09:02:53.310Z,21.55
2023-05-25T09:04:56.166Z,21.65
2023-05-25T09:07:09.729Z,21.42
2023-05-25T09:09:12.555Z,21.35
2023-05-25T09:11:17.393Z,21.24
2023-05-25T09:13:24.307Z,21.17
2023-05-25T09:15:25.911Z,20.87
2023-05-25T09:17:27.931Z,20.82
2023-05-25T09:19:29.827Z,21.12
2023-05-25T09:21:31.658Z,21.37
2023-05-25T09:23:35.396Z,21.13
2023-05-25T09:25:38.382Z,21.15
2023-05-25T09:27:41.172Z,21.29
2023-05-25T09:29:43.085Z,21.09
2023-05-25T09:31:45.114Z,21.26
2023-05-25T09:33:46.890Z,21.63
2023-05-25T09:35:48.957Z,21.71
2023-05-25T09:37:54.814Z,21.72
2023-05-25T09:39:56.677Z,21.43
2023-05-25T09:41:58.329Z,21.59
2023-05-25T09:46:51.170Z,22.32
2023-05-25T09:48:53.737Z,22.52
2023-05-25T09:50:56.826Z,22.68
2023-05-25T09:53:00.170Z,22.82
2023-05-25T09:55:02.172Z,23.08
2023-05-25T09:57:05.281Z,23.06
2023-05-25T09:59:06.922Z,23.10
2023-05-25T10:01:08.687Z,22.82
2023-05-25T10:03:14.949Z,22.98
2023-05-25T10:05:17.238Z,23.19
2023-05-25T10:07:19.983Z,23.35
2023-05-25T10:09:21.793Z,23.17
2023-05-25T10:11:29.370Z,23.25
2023-05-25T10:13:32.689Z,23.27
2023-05-25T10:15:37.465Z,23.53
2023-05-25T10:18:01.540Z,23.94
2023-05-25T10:20:07.316Z,24.28
2023-05-25T10:22:25.413Z,24.54
2023-05-25T10:24:36.970Z,24.65
2023-05-25T10:26:42.376Z,24.93
2023-05-25T10:28:46.011Z,24.88
2023-05-25T10:30:49.719Z,25.08
2023-05-25T10:32:52.418Z,25.04
2023-05-25T10:34:57.177Z,24.60
2023-05-25T10:36:59.669Z,24.27
2023-05-25T10:39:02.385Z,23.81
2023-05-25T10:41:05.763Z,23.86
2023-05-25T10:43:07.983Z,24.32
2023-05-25T10:45:10.832Z,24.92
2023-05-25T10:47:12.767Z,25.23
2023-05-25T10:49:25.304Z,25.61
2023-05-25T10:51:40.506Z,26.08
2023-05-25T10:53:46.765Z,25.97
2023-05-25T10:55:51.812Z,26.09
2023-05-25T10:58:14.542Z,26.31
2023-05-25T11:00:16.783Z,26.52
2023-05-25T11:02:24.538Z,26.42
2023-05-25T11:04:26.860Z,25.87
2023-05-25T11:06:37.883Z,26.14
2023-05-25T11:08:59.955Z,26.40
2023-05-25T11:11:01.568Z,26.82
2023-05-25T11:13:36.023Z,27.06
2023-05-25T11:15:39.513Z,27.17
2023-05-25T11:17:45.905Z,27.37
2023-05-25T11:20:02.110Z,27.36
2023-05-25T11:22:17.895Z,27.65
2023-05-25T11:24:20.557Z,28.01
2023-05-25T11:26:24.094Z,28.41
2023-05-25T11:28:26.653Z,28.65
2023-05-25T11:30:28.583Z,28.82
2023-05-25T11:32:30.607Z,28.39
2023-05-25T11:34:32.283Z,27.73
2023-05-25T11:36:37.227Z,27.62
2023-05-25T11:38:50.066Z,27.77
2023-05-25T11:41:04.150Z,27.49
2023-05-25T11:43:06.345Z,27.40
2023-05-25T11:45:14.141Z,27.13
2023-05-25T11:47:19.453Z,27.39
2023-05-25T11:49:21.698Z,27.66
2023-05-25T11:51:25.832Z,27.19
2023-05-25T11:53:27.960Z,26.88
2023-05-25T11:55:29.670Z,27.00
2023-05-25T11:57:31.629Z,27.09
2023-05-25T11:59:33.417Z,27.45
2023-05-25T12:01:34.955Z,27.59
2023-05-25T12:03:36.693Z,28.00
2023-05-25T12:05:39.373Z,27.89
2023-05-25T12:07:46.885Z,27.90
2023-05-25T12:09:48.669Z,27.84
2023-05-25T12:11:50.528Z,27.91
2023-05-25T12:13:53.086Z,28.30
2023-05-25T12:16:00.101Z,28.05
2023-05-25T12:18:01.883Z,28.42
2023-05-25T12:20:07.390Z,28.79
2023-05-25T12:22:10.280Z,29.05
2023-05-25T12:24:15.314Z,29.55
2023-05-25T12:26:18.988Z,29.61
2023-05-25T12:28:21.189Z,29.60
2023-05-25T12:30:28.214Z,28.83
2023-05-25T12:32:30.055Z,29.21
2023-05-25T12:34:31.691Z,29.49
2023-05-25T12:36:48.803Z,30.06
2023-05-25T12:38:59.964Z,30.40
2023-05-25T12:41:08.515Z,30.71
2023-05-25T12:43:11.976Z,30.43
2023-05-25T12:45:14.302Z,30.75
2023-05-25T12:47:17.193Z,30.75
2023-05-25T12:49:22.677Z,30.26
2023-05-25T12:51:25.922Z,30.00
2023-05-25T12:53:31.096Z,30.11
2023-05-25T12:55:35.742Z,29.82
2023-05-25T12:57:37.825Z,30.28
2023-05-25T12:59:40.788Z,30.73
2023-05-25T13:01:42.843Z,30.03
2023-05-25T13:03:44.799Z,29.77
2023-05-25T13:05:47.287Z,30.17
2023-05-25T13:07:49.338Z,29.78
2023-05-25T13:09:51.310Z,29.70
2023-05-25T13:11:57.736Z,29.94
2023-05-25T13:14:01.461Z,29.38
2023-05-25T13:16:07.204Z,29.80
2023-05-25T13:18:09.395Z,30.14
2023-05-25T13:20:15.747Z,30.41
2023-05-25T13:22:17.567Z,29.98
2023-05-25T13:24:19.784Z,29.76
2023-05-25T13:26:21.583Z,29.81
2023-05-25T13:28:23.334Z,29.68
2023-05-25T13:30:26.712Z,30.08
2023-05-25T13:32:31.442Z,30.13
2023-05-25T13:34:34.005Z,29.80
2023-05-25T13:36:36.134Z,29.88
2023-05-25T13:38:38.285Z,30.70
2023-05-25T13:40:40.014Z,30.69
2023-05-25T13:42:42.243Z,31.22
2023-05-25T13:44:44.260Z,31.36
2023-05-25T13:46:46.811Z,31.89
2023-05-25T13:48:48.822Z,31.95
2023-05-25T13:50:51.190Z,31.02
2023-05-25T13:52:53.292Z,31.33
2023-05-25T13:54:55.081Z,30.72
2023-05-25T13:56:57.408Z,31.00
2023-05-25T13:58:59.527Z,31.62
2023-05-25T14:01:01.623Z,31.83
2023-05-25T14:03:03.998Z,32.12
2023-05-25T14:05:06.646Z,31.11
2023-05-25T14:07:09.131Z,31.44
2023-05-25T14:09:12.784Z,31.34
2023-05-25T14:11:18.402Z,31.44
2023-05-25T14:13:23.526Z,31.79
2023-05-25T14:15:25.655Z,31.92
2023-05-25T14:17:27.481Z,32.50
2023-05-25T14:19:29.240Z,32.20
2023-05-25T14:21:31.668Z,32.16
2023-05-25T14:23:33.891Z,32.72
2023-05-25T14:25:37.215Z,32.64
2023-05-25T14:27:38.826Z,32.47
2023-05-25T14:29:40.485Z,31.82
2023-05-25T14:31:42.306Z,31.61
2023-05-25T14:33:44.548Z,31.27
2023-05-25T14:35:46.721Z,31.57
2023-05-25T14:37:49.095Z,31.69
2023-05-25T14:39:51.445Z,31.29
2023-05-25T14:41:53.365Z,31.54
2023-05-25T14:43:54.992Z,32.01
2023-05-25T14:45:56.748Z,32.30
2023-05-25T14:48:11.897Z,32.54
2023-05-25T14:50:18.291Z,33.11
2023-05-25T14:52:20.807Z,33.15
2023-05-25T14:54:22.480Z,32.88
2023-05-25T14:56:26.027Z,32.73
2023-05-25T14:58:29.012Z,31.84
2023-05-25T15:00:31.037Z,31.50
2023-05-25T15:02:33.319Z,31.61
2023-05-25T15:04:35.359Z,31.94
2023-05-25T15:06:39.181Z,32.07
2023-05-25T15:08:42.184Z,32.51
2023-05-25T15:10:43.905Z,32.84
2023-05-25T15:12:46.021Z,33.21
2023-05-25T15:14:47.698Z,33.13
2023-05-25T15:16:49.494Z,33.36
2023-05-25T15:18:51.795Z,32.90
2023-05-25T15:20:53.917Z,32.51
2023-05-25T15:22:55.769Z,32.23
2023-05-25T15:24:57.414Z,32.09
2023-05-25T15:26:59.498Z,31.24
2023-05-25T15:29:01.175Z,30.58
2023-05-25T15:31:03.671Z,30.32
2023-05-25T15:33:05.677Z,30.51
2023-05-25T15:35:07.641Z,30.59
2023-05-25T15:37:11.174Z,29.99
2023-05-25T15:39:15.301Z,29.68
2023-05-25T15:41:17.755Z,30.19
2023-05-25T15:43:19.684Z,30.21
2023-05-25T15:45:21.370Z,30.07
2023-05-25T15:47:22.870Z,29.59
2023-05-25T15:49:25.046Z,29.35
2023-05-25T15:51:26.595Z,29.02
2023-05-25T15:53:28.357Z,28.27
2023-05-25T15:55:29.889Z,27.68
2023-05-25T15:57:31.404Z,27.18
2023-05-25T15:59:33.008Z,26.60
2023-05-25T16:01:37.065Z,25.92
2023-05-25T16:03:38.677Z,25.65
2023-05-25T16:05:40.400Z,25.56
2023-05-25T16:07:41.968Z,25.55
2023-05-25T16:09:43.876Z,25.51
2023-05-25T16:11:46.008Z,25.35
2023-05-25T16:13:47.607Z,25.15
2023-05-25T16:15:49.390Z,25.12
2023-05-25T16:17:50.879Z,24.87
2023-05-25T16:19:53.202Z,24.80
2023-05-25T16:21:55.274Z,24.63
2023-05-25T16:23:56.768Z,24.75
2023-05-25T16:26:00.784Z,24.82
2023-05-25T16:28:02.340Z,24.67
2023-05-25T16:30:04.661Z,24.58
2023-05-25T16:32:06.748Z,24.58
2023-05-25T16:34:08.613Z,24.19
2023-05-25T16:36:10.421Z,23.98
2023-05-25T16:38:11.969Z,23.67
2023-05-25T16:40:13.506Z,23.35
2023-05-25T16:42:15.151Z,23.13
2023-05-25T16:44:16.848Z,23.15
2023-05-25T16:46:18.556Z,23.04
2023-05-25T16:48:23.061Z,22.99
2023-05-25T16:50:25.065Z,22.88
2023-05-25T16:52:26.621Z,22.71
2023-05-25T16:54:29.520Z,22.73
2023-05-25T16:56:31.179Z,22.76
2023-05-25T16:58:32.714Z,22.79
2023-05-25T17:00:34.785Z,22.82
2023-05-25T17:02:36.449Z,22.75
2023-05-25T17:04:38.076Z,22.42
2023-05-25T17:06:39.866Z,22.36
2023-05-25T17:08:41.623Z,22.43
2023-05-25T17:10:47.995Z,22.46
2023-05-25T17:12:49.838Z,22.50
2023-05-25T17:14:51.591Z,22.39
2023-05-25T17:16:53.338Z,22.18
2023-05-25T17:18:55.445Z,22.06
2023-05-25T17:20:57.782Z,22.07
2023-05-25T17:22:59.730Z,22.15
2023-05-25T17:25:01.372Z,22.15
2023-05-25T17:27:03.016Z,22.13
2023-05-25T17:29:06.067Z,22.19
2023-05-25T17:31:09.529Z,22.06
2023-05-25T17:33:11.686Z,21.99
2023-05-25T17:35:13.253Z,21.83
2023-05-25T17:37:15.114Z,21.80
2023-05-25T17:39:17.062Z,21.88
2023-05-25T17:41:18.747Z,21.84
2023-05-25T17:43:20.360Z,21.78
2023-05-25T17:45:22.054Z,21.73
2023-05-25T17:47:25.347Z,21.73
2023-05-25T17:49:26.940Z,21.45
2023-05-25T17:51:28.871Z,21.50
2023-05-25T17:53:30.471Z,21.53
2023-05-25T17:55:32.002Z,21.20
2023-05-25T17:57:33.840Z,21.26
2023-05-25T17:59:36.461Z,21.20
2023-05-25T18:01:38.311Z,21.19
2023-05-25T18:03:41.152Z,21.20
2023-05-25T18:05:43.295Z,21.30
2023-05-25T18:07:45.370Z,21.31
2023-05-25T18:09:46.951Z,21.25
2023-05-25T18:11:48.538Z,21.34
2023-05-25T18:13:50.877Z,21.34
2023-05-25T18:15:52.568Z,21.35
2023-05-25T18:17:54.237Z,21.21
2023-05-25T18:19:55.834Z,21.05
2023-05-25T18:21:57.502Z,20.93
2023-05-25T18:24:00.051Z,20.75
2023-05-25T18:26:01.580Z,20.52
2023-05-25T18:28:03.299Z,20.54
2023-05-25T18:30:05.362Z,20.36
2023-05-25T18:32:07.100Z,20.23
2023-05-25T18:34:08.612Z,20.12
2023-05-25T18:36:10.476Z,20.04
2023-05-25T18:38:12.158Z,19.93
2023-05-25T18:40:14.184Z,19.98
2023-05-25T18:42:15.702Z,19.97
2023-05-25T18:44:17.246Z,19.86
2023-05-25T18:46:19.022Z,19.90
2023-05-25T18:48:21.039Z,19.91
2023-05-25T18:50:22.612Z,19.83
2023-05-25T18:52:24.319Z,19.86
2023-05-25T18:54:25.948Z,19.85
2023-05-25T18:56:27.468Z,19.91
2023-05-25T18:58:29.056Z,19.66
2023-05-25T19:00:30.895Z,19.53
2023-05-25T19:02:32.456Z,19.55
2023-05-25T19:04:34.158Z,19.29
2023-05-25T19:06:36.147Z,19.27
2023-05-25T19:08:37.691Z,19.31
2023-05-25T19:10:41.549Z,19.23
2023-05-25T19:12:43.709Z,19.22
2023-05-25T19:14:45.287Z,19.07
2023-05-25T19:16:48.736Z,19.05
2023-05-25T19:18:50.860Z,19.02
2023-05-25T19:20:52.609Z,19.02
2023-05-25T19:22:54.129Z,18.88
2023-05-25T19:25:00.613Z,18.69
2023-05-25T19:27:02.592Z,18.66
2023-05-25T19:29:04.162Z,18.41
2023-05-25T19:31:05.817Z,18.07
2023-05-25T19:33:07.556Z,17.88
2023-05-25T19:35:09.340Z,17.64
2023-05-25T19:37:11.888Z,17.44
2023-05-25T19:39:13.708Z,17.20
2023-05-25T19:41:15.975Z,17.01
2023-05-25T19:43:17.717Z,16.78
2023-05-25T19:45:19.800Z,16.63
2023-05-25T19:47:21.962Z,16.52
2023-05-25T19:49:23.455Z,16.42
2023-05-25T19:51:25.100Z,16.29
2023-05-25T19:53:26.788Z,16.14
2023-05-25T19:55:28.441Z,16.05
2023-05-25T19:57:30.024Z,16.02
2023-05-25T19:59:31.657Z,16.04
2023-05-25T20:01:33.523Z,15.93
2023-05-25T20:03:35.405Z,15.83
2023-05-25T20:05:37.423Z,15.78
2023-05-25T20:07:39.111Z,15.74
2023-05-25T20:09:41.345Z,15.59
2023-05-25T20:11:42.923Z,15.51
2023-05-25T20:13:45.742Z,15.49
2023-05-25T20:15:48.309Z,15.40
2023-05-25T20:17:50.188Z,15.36
2023-05-25T20:19:53.596Z,15.29
2023-05-25T20:21:55.552Z,15.31
2023-05-25T20:23:57.200Z,15.23
2023-05-25T20:25:58.796Z,15.13
2023-05-25T20:28:00.384Z,15.21
2023-05-25T20:30:02.035Z,15.22
2023-05-25T20:32:04.224Z,15.21
2023-05-25T20:34:06.334Z,15.18
2023-05-25T20:36:07.942Z,15.17
2023-05-25T20:38:09.729Z,15.12
2023-05-25T20:40:11.357Z,15.10
2023-05-25T20:42:14.297Z,14.96
2023-05-25T20:44:16.072Z,14.75
2023-05-25T20:46:17.712Z,14.73
2023-05-25T20:48:19.326Z,14.83
2023-05-25T20:50:20.999Z,14.82
2023-05-25T20:52:23.345Z,14.80
2023-05-25T20:54:24.882Z,14.71
2023-05-25T20:56:29.423Z,14.67
2023-05-25T20:58:31.121Z,14.75
2023-05-25T21:00:32.717Z,14.61
2023-05-25T21:02:34.401Z,14.61
2023-05-25T21:04:36.280Z,14.57
2023-05-25T21:06:37.824Z,14.49
2023-05-25T21:08:39.326Z,14.41
2023-05-25T21:10:41.301Z,14.35
2023-05-25T21:12:42.847Z,14.37
2023-05-25T21:14:44.446Z,14.31
2023-05-25T21:16:46.300Z,14.33
2023-05-25T21:18:47.873Z,14.34
2023-05-25T21:20:49.418Z,14.32
2023-05-25T21:22:51.257Z,14.28
2023-05-25T21:24:52.808Z,14.32
2023-05-25T21:26:54.355Z,14.30
2023-05-25T21:28:56.912Z,14.29
2023-05-25T21:30:58.647Z,14.24
2023-05-25T21:33:00.537Z,14.23
2023-05-25T21:35:02.150Z,14.15
2023-05-25T21:37:05.073Z,14.16
2023-05-25T21:39:06.688Z,14.08
2023-05-25T21:41:08.262Z,14.05
2023-05-25T21:43:09.872Z,13.97
2023-05-25T21:45:11.440Z,13.99
2023-05-25T21:47:13.078Z,13.96
2023-05-25T21:49:14.715Z,13.81
2023-05-25T21:51:17.139Z,13.81
2023-05-25T21:53:19.768Z,13.80
2023-05-25T21:55:21.325Z,13.79
2023-05-25T21:57:22.912Z,13.75
2023-05-25T21:59:24.653Z,13.67
2023-05-25T22:01:26.308Z,13.68
2023-05-25T22:03:27.959Z,13.65
2023-05-25T22:05:34.111Z,13.64
2023-05-25T22:07:35.897Z,13.52
2023-05-25T22:09:37.564Z,13.36
2023-05-25T22:11:39.925Z,13.35
2023-05-25T22:13:41.576Z,13.41
2023-05-25T22:15:44.405Z,13.43
2023-05-25T22:17:46.146Z,13.39
2023-05-25T22:19:59.025Z,13.38
2023-05-25T22:22:08.737Z,13.35
2023-05-25T22:24:10.282Z,13.32
2023-05-25T22:26:12.496Z,13.28
2023-05-25T22:28:14.881Z,13.23
2023-05-25T22:30:16.691Z,13.15
2023-05-25T22:32:18.346Z,13.12
2023-05-25T22:34:20.178Z,13.14
2023-05-25T22:36:21.885Z,13.13
2023-05-25T22:38:23.454Z,13.13
2023-05-25T22:40:25.333Z,13.15
2023-05-25T22:42:27.339Z,13.11
2023-05-25T22:44:28.898Z,13.05
2023-05-25T22:46:30.829Z,12.98
2023-05-25T22:48:32.462Z,13.03
2023-05-25T22:50:34.428Z,12.99
2023-05-25T22:52:36.832Z,13.05
2023-05-25T22:54:38.350Z,13.03
2023-05-25T22:56:40.472Z,13.01
2023-05-25T22:58:42.280Z,12.93
2023-05-25T23:00:43.804Z,12.84
2023-05-25T23:02:45.464Z,12.65
2023-05-25T23:04:47.158Z,12.62
2023-05-25T23:06:49.013Z,12.58
2023-05-25T23:08:50.708Z,12.57
2023-05-25T23:10:52.395Z,12.61
2023-05-25T23:12:54.678Z,12.65
2023-05-25T23:14:59.222Z,12.53
2023-05-25T23:17:00.772Z,12.49
2023-05-25T23:19:02.396Z,12.41
2023-05-25T23:21:04.132Z,12.32
2023-05-25T23:23:05.734Z,12.31
2023-05-25T23:25:07.889Z,12.26
2023-05-25T23:27:09.976Z,12.19
2023-05-25T23:29:12.528Z,12.23
2023-05-25T23:31:14.265Z,12.21
2023-05-25T23:33:18.294Z,12.19
2023-05-25T23:35:20.246Z,12.17
2023-05-25T23:37:22.479Z,12.15
2023-05-25T23:39:24.912Z,11.91
2023-05-25T23:41:26.777Z,11.90
2023-05-25T23:43:28.524Z,11.79
2023-05-25T23:45:30.152Z,11.82
2023-05-25T23:47:31.963Z,11.76
2023-05-25T23:49:33.611Z,11.74
2023-05-25T23:51:36.196Z,11.76
2023-05-25T23:53:38.849Z,11.72
2023-05-25T23:55:40.500Z,11.56
2023-05-25T23:57:42.059Z,11.55
2023-05-25T23:59:44.224Z,11.48
